sensor_id;sensor_type;location;lat;lon;timestamp;temperature;humidity
51765;DHT22;37835;53.256;6.456;2023-02-18T00:00:16;6.70;99.90
51765;DHT22;37835;53.256;6.456;2023-02-18T00:02:43;6.70;99.90
51765;DHT22;37835;53.256;6.456;2023-02-18T00:05:09;6.70;99.90
51765;DHT22;37835;53.256;6.456;2023-02-18T00:07:36;6.80;99.90
51765;DHT22;37835;53.256;6.456;2023-02-18T00:10:03;6.80;99.90
51765;DHT22;37835;53.256;6.456;2023-02-18T00:12:31;6.80;99.90
51765;DHT22;37835;53.256;6.456;2023-02-18T00:14:57;6.80;99.90
51765;DHT22;37835;53.256;6.456;2023-02-18T00:17:22;6.80;99.90
51765;DHT22;37835;53.256;6.456;2023-02-18T00:19:48;6.80;99.90
51765;DHT22;37835;53.256;6.456;2023-02-18T00:22:14;6.80;99.90
51765;DHT22;37835;53.256;6.456;2023-02-18T00:24:39;6.90;99.90
51765;DHT22;37835;53.256;6.456;2023-02-18T00:27:05;6.80;99.90
51765;DHT22;37835;53.256;6.456;2023-02-18T00:29:31;6.90;99.90
51765;DHT22;37835;53.256;6.456;2023-02-18T00:31:57;6.60;99.90
51765;DHT22;37835;53.256;6.456;2023-02-18T00:34:23;6.90;99.90
51765;DHT22;37835;53.256;6.456;2023-02-18T00:36:48;6.90;99.90
51765;DHT22;37835;53.256;6.456;2023-02-18T00:39:14;6.90;99.90
51765;DHT22;37835;53.256;6.456;2023-02-18T00:41:40;6.90;99.90
51765;DHT22;37835;53.256;6.456;2023-02-18T00:44:06;6.80;99.90
51765;DHT22;37835;53.256;6.456;2023-02-18T00:46:32;6.90;99.90
51765;DHT22;37835;53.256;6.456;2023-02-18T00:48:57;6.80;99.90
51765;DHT22;37835;53.256;6.456;2023-02-18T00:51:23;6.80;99.90
51765;DHT22;37835;53.256;6.456;2023-02-18T00:53:50;6.80;99.90
51765;DHT22;37835;53.256;6.456;2023-02-18T00:56:15;6.80;99.90
51765;DHT22;37835;53.256;6.456;2023-02-18T00:58:41;6.70;99.90
51765;DHT22;37835;53.256;6.456;2023-02-18T01:01:08;6.70;99.90
51765;DHT22;37835;53.256;6.456;2023-02-18T01:03:35;6.60;99.90
51765;DHT22;37835;53.256;6.456;2023-02-18T01:06:01;6.70;99.90
51765;DHT22;37835;53.256;6.456;2023-02-18T01:08:26;6.60;99.90
51765;DHT22;37835;53.256;6.456;2023-02-18T01:10:54;6.50;99.90
51765;DHT22;37835;53.256;6.456;2023-02-18T01:13:20;6.60;99.90
51765;DHT22;37835;53.256;6.456;2023-02-18T01:15:46;6.50;99.90
51765;DHT22;37835;53.256;6.456;2023-02-18T01:18:13;6.50;99.90
51765;DHT22;37835;53.256;6.456;2023-02-18T01:20:40;6.50;99.90
51765;DHT22;37835;53.256;6.456;2023-02-18T01:23:06;6.50;99.90
51765;DHT22;37835;53.256;6.456;2023-02-18T01:25:32;6.40;99.90
51765;DHT22;37835;53.256;6.456;2023-02-18T01:27:58;6.40;99.90
51765;DHT22;37835;53.256;6.456;2023-02-18T01:30:24;6.40;99.90
51765;DHT22;37835;53.256;6.456;2023-02-18T01:32:49;6.40;99.90
51765;DHT22;37835;53.256;6.456;2023-02-18T01:35:17;6.40;99.90
51765;DHT22;37835;53.256;6.456;2023-02-18T01:37:42;6.40;99.90
51765;DHT22;37835;53.256;6.456;2023-02-18T01:40:12;6.40;99.90
51765;DHT22;37835;53.256;6.456;2023-02-18T01:42:39;6.50;99.90
51765;DHT22;37835;53.256;6.456;2023-02-18T01:48:22;6.50;99.90
51765;DHT22;37835;53.256;6.456;2023-02-18T01:50:53;6.50;99.90
51765;DHT22;37835;53.256;6.456;2023-02-18T01:53:48;6.60;99.90
51765;DHT22;37835;53.256;6.456;2023-02-18T01:56:30;6.60;99.90
51765;DHT22;37835;53.256;6.456;2023-02-18T01:58:59;6.70;99.90
51765;DHT22;37835;53.256;6.456;2023-02-18T02:01:26;6.70;99.90
51765;DHT22;37835;53.256;6.456;2023-02-18T02:03:52;6.70;99.90
51765;DHT22;37835;53.256;6.456;2023-02-18T02:06:20;6.70;99.90
51765;DHT22;37835;53.256;6.456;2023-02-18T02:08:48;6.70;99.90
51765;DHT22;37835;53.256;6.456;2023-02-18T02:11:17;6.70;99.90
51765;DHT22;37835;53.256;6.456;2023-02-18T02:16:39;6.80;99.90
51765;DHT22;37835;53.256;6.456;2023-02-18T02:19:35;6.80;99.90
51765;DHT22;37835;53.256;6.456;2023-02-18T02:22:24;6.80;99.90
51765;DHT22;37835;53.256;6.456;2023-02-18T02:27:57;6.80;99.90
51765;DHT22;37835;53.256;6.456;2023-02-18T02:36:12;6.90;99.90
51765;DHT22;37835;53.256;6.456;2023-02-18T02:38:50;7.10;99.90
51765;DHT22;37835;53.256;6.456;2023-02-18T02:41:31;6.90;99.90
51765;DHT22;37835;53.256;6.456;2023-02-18T02:44:20;6.90;99.90
51765;DHT22;37835;53.256;6.456;2023-02-18T02:46:51;6.90;99.90
51765;DHT22;37835;53.256;6.456;2023-02-18T02:49:31;6.90;99.90
51765;DHT22;37835;53.256;6.456;2023-02-18T02:54:28;7.00;99.90
51765;DHT22;37835;53.256;6.456;2023-02-18T02:57:08;7.00;99.90
51765;DHT22;37835;53.256;6.456;2023-02-18T02:59:58;7.00;99.90
51765;DHT22;37835;53.256;6.456;2023-02-18T03:02:40;7.00;99.90
51765;DHT22;37835;53.256;6.456;2023-02-18T03:08:24;7.00;99.90
51765;DHT22;37835;53.256;6.456;2023-02-18T03:13:50;7.00;99.90
51765;DHT22;37835;53.256;6.456;2023-02-18T03:16:34;7.00;99.90
51765;DHT22;37835;53.256;6.456;2023-02-18T03:19:23;7.00;99.90
51765;DHT22;37835;53.256;6.456;2023-02-18T03:21:59;7.10;99.90
51765;DHT22;37835;53.256;6.456;2023-02-18T03:24:41;7.10;99.90
51765;DHT22;37835;53.256;6.456;2023-02-18T03:27:32;7.10;99.90
51765;DHT22;37835;53.256;6.456;2023-02-18T03:32:46;7.10;99.90
51765;DHT22;37835;53.256;6.456;2023-02-18T03:35:16;7.20;99.90
51765;DHT22;37835;53.256;6.456;2023-02-18T03:37:48;7.20;99.90
51765;DHT22;37835;53.256;6.456;2023-02-18T03:40:16;7.20;99.90
51765;DHT22;37835;53.256;6.456;2023-02-18T03:42:42;7.30;99.90
51765;DHT22;37835;53.256;6.456;2023-02-18T03:45:08;7.30;99.90
51765;DHT22;37835;53.256;6.456;2023-02-18T03:47:33;7.30;99.90
51765;DHT22;37835;53.256;6.456;2023-02-18T03:49:59;7.30;99.90
51765;DHT22;37835;53.256;6.456;2023-02-18T03:52:24;7.30;99.90
51765;DHT22;37835;53.256;6.456;2023-02-18T03:54:50;7.30;99.90
51765;DHT22;37835;53.256;6.456;2023-02-18T03:57:15;7.40;99.90
51765;DHT22;37835;53.256;6.456;2023-02-18T03:59:41;7.30;99.90
51765;DHT22;37835;53.256;6.456;2023-02-18T04:02:07;7.40;99.90
51765;DHT22;37835;53.256;6.456;2023-02-18T04:04:32;7.40;99.90
51765;DHT22;37835;53.256;6.456;2023-02-18T04:06:58;7.40;99.90
51765;DHT22;37835;53.256;6.456;2023-02-18T04:09:23;7.40;99.90
51765;DHT22;37835;53.256;6.456;2023-02-18T04:11:49;7.40;99.90
51765;DHT22;37835;53.256;6.456;2023-02-18T04:14:14;7.40;99.90
51765;DHT22;37835;53.256;6.456;2023-02-18T04:16:41;7.40;99.90
51765;DHT22;37835;53.256;6.456;2023-02-18T04:19:06;7.40;99.90
51765;DHT22;37835;53.256;6.456;2023-02-18T04:21:33;7.40;99.90
51765;DHT22;37835;53.256;6.456;2023-02-18T04:23:59;7.40;99.90
51765;DHT22;37835;53.256;6.456;2023-02-18T04:26:25;6.60;99.90
51765;DHT22;37835;53.256;6.456;2023-02-18T04:28:51;7.40;99.90
51765;DHT22;37835;53.256;6.456;2023-02-18T04:31:17;7.40;99.90
51765;DHT22;37835;53.256;6.456;2023-02-18T04:33:43;7.40;99.90
51765;DHT22;37835;53.256;6.456;2023-02-18T04:36:08;7.40;99.90
51765;DHT22;37835;53.256;6.456;2023-02-18T04:38:34;7.40;99.90
51765;DHT22;37835;53.256;6.456;2023-02-18T04:41:00;7.40;99.90
51765;DHT22;37835;53.256;6.456;2023-02-18T04:43:25;7.40;99.90
51765;DHT22;37835;53.256;6.456;2023-02-18T04:45:51;7.40;99.90
51765;DHT22;37835;53.256;6.456;2023-02-18T04:48:16;7.40;99.90
51765;DHT22;37835;53.256;6.456;2023-02-18T04:50:43;7.40;99.90
51765;DHT22;37835;53.256;6.456;2023-02-18T04:53:09;7.40;99.90
51765;DHT22;37835;53.256;6.456;2023-02-18T04:55:34;7.40;99.90
51765;DHT22;37835;53.256;6.456;2023-02-18T04:58:00;7.40;99.90
51765;DHT22;37835;53.256;6.456;2023-02-18T05:00:25;7.40;99.90
51765;DHT22;37835;53.256;6.456;2023-02-18T05:02:52;7.40;99.90
51765;DHT22;37835;53.256;6.456;2023-02-18T05:05:18;7.40;99.90
51765;DHT22;37835;53.256;6.456;2023-02-18T05:07:44;7.40;99.90
51765;DHT22;37835;53.256;6.456;2023-02-18T05:10:13;7.50;99.90
51765;DHT22;37835;53.256;6.456;2023-02-18T05:12:39;7.50;99.90
51765;DHT22;37835;53.256;6.456;2023-02-18T05:15:05;7.50;99.90
51765;DHT22;37835;53.256;6.456;2023-02-18T05:17:31;7.50;99.90
51765;DHT22;37835;53.256;6.456;2023-02-18T05:19:57;7.50;99.90
51765;DHT22;37835;53.256;6.456;2023-02-18T05:22:22;7.50;99.90
51765;DHT22;37835;53.256;6.456;2023-02-18T05:24:48;7.60;99.90
51765;DHT22;37835;53.256;6.456;2023-02-18T05:27:13;7.60;99.90
51765;DHT22;37835;53.256;6.456;2023-02-18T05:29:39;7.60;99.90
51765;DHT22;37835;53.256;6.456;2023-02-18T05:32:05;7.60;99.90
51765;DHT22;37835;53.256;6.456;2023-02-18T05:34:30;7.60;99.90
51765;DHT22;37835;53.256;6.456;2023-02-18T05:36:56;7.60;99.90
51765;DHT22;37835;53.256;6.456;2023-02-18T05:39:21;7.60;99.90
51765;DHT22;37835;53.256;6.456;2023-02-18T05:41:47;7.70;99.90
51765;DHT22;37835;53.256;6.456;2023-02-18T05:44:12;7.70;99.90
51765;DHT22;37835;53.256;6.456;2023-02-18T05:47:06;7.70;99.90
51765;DHT22;37835;53.256;6.456;2023-02-18T05:49:33;7.70;99.90
51765;DHT22;37835;53.256;6.456;2023-02-18T05:51:59;7.80;99.90
51765;DHT22;37835;53.256;6.456;2023-02-18T05:54:25;7.80;99.90
51765;DHT22;37835;53.256;6.456;2023-02-18T05:56:52;7.80;99.90
51765;DHT22;37835;53.256;6.456;2023-02-18T05:59:18;7.80;99.90
51765;DHT22;37835;53.256;6.456;2023-02-18T06:01:44;7.90;99.90
51765;DHT22;37835;53.256;6.456;2023-02-18T06:04:10;7.90;99.90
51765;DHT22;37835;53.256;6.456;2023-02-18T06:06:35;8.00;99.90
51765;DHT22;37835;53.256;6.456;2023-02-18T06:09:01;8.00;99.90
51765;DHT22;37835;53.256;6.456;2023-02-18T06:11:27;8.10;99.90
51765;DHT22;37835;53.256;6.456;2023-02-18T06:13:53;8.10;99.90
51765;DHT22;37835;53.256;6.456;2023-02-18T06:16:18;8.10;99.90
51765;DHT22;37835;53.256;6.456;2023-02-18T06:18:44;8.20;99.90
51765;DHT22;37835;53.256;6.456;2023-02-18T06:21:09;8.20;99.90
51765;DHT22;37835;53.256;6.456;2023-02-18T06:23:35;8.20;99.90
51765;DHT22;37835;53.256;6.456;2023-02-18T06:26:01;8.30;99.90
51765;DHT22;37835;53.256;6.456;2023-02-18T06:28:26;8.40;99.90
51765;DHT22;37835;53.256;6.456;2023-02-18T06:30:52;8.40;99.90
51765;DHT22;37835;53.256;6.456;2023-02-18T06:33:17;8.40;99.90
51765;DHT22;37835;53.256;6.456;2023-02-18T06:35:53;8.50;99.90
51765;DHT22;37835;53.256;6.456;2023-02-18T06:38:19;8.50;99.90
51765;DHT22;37835;53.256;6.456;2023-02-18T06:40:46;8.60;99.90
51765;DHT22;37835;53.256;6.456;2023-02-18T06:43:12;8.60;99.90
51765;DHT22;37835;53.256;6.456;2023-02-18T06:45:38;8.60;99.90
51765;DHT22;37835;53.256;6.456;2023-02-18T06:48:04;8.70;99.90
51765;DHT22;37835;53.256;6.456;2023-02-18T06:50:29;8.70;99.90
51765;DHT22;37835;53.256;6.456;2023-02-18T06:52:55;8.80;99.90
51765;DHT22;37835;53.256;6.456;2023-02-18T06:55:20;8.80;99.90
51765;DHT22;37835;53.256;6.456;2023-02-18T06:57:46;8.80;99.90
51765;DHT22;37835;53.256;6.456;2023-02-18T07:00:12;8.80;99.90
51765;DHT22;37835;53.256;6.456;2023-02-18T07:02:37;8.90;99.90
51765;DHT22;37835;53.256;6.456;2023-02-18T07:05:03;8.90;99.90
51765;DHT22;37835;53.256;6.456;2023-02-18T07:07:29;8.80;99.90
51765;DHT22;37835;53.256;6.456;2023-02-18T07:09:55;9.00;99.90
51765;DHT22;37835;53.256;6.456;2023-02-18T07:12:20;9.00;99.90
51765;DHT22;37835;53.256;6.456;2023-02-18T07:14:46;9.10;99.90
51765;DHT22;37835;53.256;6.456;2023-02-18T07:17:12;9.10;99.90
51765;DHT22;37835;53.256;6.456;2023-02-18T07:19:38;9.20;99.90
51765;DHT22;37835;53.256;6.456;2023-02-18T07:22:03;9.20;99.90
51765;DHT22;37835;53.256;6.456;2023-02-18T07:24:29;9.30;99.90
51765;DHT22;37835;53.256;6.456;2023-02-18T07:26:55;9.30;99.90
51765;DHT22;37835;53.256;6.456;2023-02-18T07:29:20;9.30;99.90
51765;DHT22;37835;53.256;6.456;2023-02-18T07:31:46;9.40;99.90
51765;DHT22;37835;53.256;6.456;2023-02-18T07:34:11;9.40;99.90
51765;DHT22;37835;53.256;6.456;2023-02-18T07:36:37;9.50;99.90
51765;DHT22;37835;53.256;6.456;2023-02-18T07:39:03;9.50;99.90
51765;DHT22;37835;53.256;6.456;2023-02-18T07:41:28;9.50;99.90
51765;DHT22;37835;53.256;6.456;2023-02-18T07:43:54;9.50;99.90
51765;DHT22;37835;53.256;6.456;2023-02-18T07:46:19;9.50;99.90
51765;DHT22;37835;53.256;6.456;2023-02-18T07:48:45;9.60;99.90
51765;DHT22;37835;53.256;6.456;2023-02-18T07:51:11;9.60;99.90
51765;DHT22;37835;53.256;6.456;2023-02-18T07:53:38;9.60;99.90
51765;DHT22;37835;53.256;6.456;2023-02-18T07:56:04;9.60;99.90
51765;DHT22;37835;53.256;6.456;2023-02-18T07:58:32;9.60;99.90
51765;DHT22;37835;53.256;6.456;2023-02-18T08:00:58;9.60;99.90
51765;DHT22;37835;53.256;6.456;2023-02-18T08:03:27;9.60;99.90
51765;DHT22;37835;53.256;6.456;2023-02-18T08:05:53;9.60;99.90
51765;DHT22;37835;53.256;6.456;2023-02-18T08:08:22;9.60;99.90
51765;DHT22;37835;53.256;6.456;2023-02-18T08:10:48;9.60;99.90
51765;DHT22;37835;53.256;6.456;2023-02-18T08:13:14;9.60;99.90
51765;DHT22;37835;53.256;6.456;2023-02-18T08:15:40;9.60;99.90
51765;DHT22;37835;53.256;6.456;2023-02-18T08:18:08;9.60;99.90
51765;DHT22;37835;53.256;6.456;2023-02-18T08:20:38;9.60;99.90
51765;DHT22;37835;53.256;6.456;2023-02-18T08:23:04;9.60;99.90
51765;DHT22;37835;53.256;6.456;2023-02-18T08:25:30;9.60;99.90
51765;DHT22;37835;53.256;6.456;2023-02-18T08:27:57;9.60;99.90
51765;DHT22;37835;53.256;6.456;2023-02-18T08:30:23;9.60;99.90
51765;DHT22;37835;53.256;6.456;2023-02-18T08:32:49;9.60;99.90
51765;DHT22;37835;53.256;6.456;2023-02-18T08:35:14;9.50;99.90
51765;DHT22;37835;53.256;6.456;2023-02-18T08:37:40;9.50;99.90
51765;DHT22;37835;53.256;6.456;2023-02-18T08:40:06;9.50;99.90
51765;DHT22;37835;53.256;6.456;2023-02-18T08:42:32;9.50;99.90
51765;DHT22;37835;53.256;6.456;2023-02-18T08:44:58;9.50;99.90
51765;DHT22;37835;53.256;6.456;2023-02-18T08:47:23;9.40;99.90
51765;DHT22;37835;53.256;6.456;2023-02-18T08:49:49;9.40;99.90
51765;DHT22;37835;53.256;6.456;2023-02-18T08:52:14;9.40;99.90
51765;DHT22;37835;53.256;6.456;2023-02-18T08:54:40;9.40;99.90
51765;DHT22;37835;53.256;6.456;2023-02-18T08:57:06;9.40;99.90
51765;DHT22;37835;53.256;6.456;2023-02-18T08:59:31;9.30;99.90
51765;DHT22;37835;53.256;6.456;2023-02-18T09:01:57;9.30;99.90
51765;DHT22;37835;53.256;6.456;2023-02-18T09:04:22;9.30;99.90
51765;DHT22;37835;53.256;6.456;2023-02-18T09:06:48;9.30;99.90
51765;DHT22;37835;53.256;6.456;2023-02-18T09:09:15;9.30;99.90
51765;DHT22;37835;53.256;6.456;2023-02-18T09:11:41;9.30;99.90
51765;DHT22;37835;53.256;6.456;2023-02-18T09:14:06;9.30;99.90
51765;DHT22;37835;53.256;6.456;2023-02-18T09:16:32;9.30;99.90
51765;DHT22;37835;53.256;6.456;2023-02-18T09:18:58;9.30;99.90
51765;DHT22;37835;53.256;6.456;2023-02-18T09:21:23;9.30;99.90
51765;DHT22;37835;53.256;6.456;2023-02-18T09:23:49;9.30;99.90
51765;DHT22;37835;53.256;6.456;2023-02-18T09:26:17;9.30;99.90
51765;DHT22;37835;53.256;6.456;2023-02-18T09:28:43;9.30;99.90
51765;DHT22;37835;53.256;6.456;2023-02-18T09:31:15;9.30;99.90
51765;DHT22;37835;53.256;6.456;2023-02-18T09:33:51;9.30;99.90
51765;DHT22;37835;53.256;6.456;2023-02-18T09:36:17;9.30;99.90
51765;DHT22;37835;53.256;6.456;2023-02-18T09:38:43;9.30;99.90
51765;DHT22;37835;53.256;6.456;2023-02-18T09:44:00;9.30;99.90
51765;DHT22;37835;53.256;6.456;2023-02-18T09:46:36;9.30;99.90
51765;DHT22;37835;53.256;6.456;2023-02-18T09:49:06;9.30;99.90
51765;DHT22;37835;53.256;6.456;2023-02-18T09:51:32;9.30;99.90
51765;DHT22;37835;53.256;6.456;2023-02-18T09:53:58;9.30;99.90
51765;DHT22;37835;53.256;6.456;2023-02-18T09:56:29;9.30;99.90
51765;DHT22;37835;53.256;6.456;2023-02-18T09:58:57;9.30;99.90
51765;DHT22;37835;53.256;6.456;2023-02-18T10:01:44;9.30;99.90
51765;DHT22;37835;53.256;6.456;2023-02-18T10:06:50;9.30;99.90
51765;DHT22;37835;53.256;6.456;2023-02-18T10:09:21;9.40;99.90
51765;DHT22;37835;53.256;6.456;2023-02-18T10:11:55;9.40;99.90
51765;DHT22;37835;53.256;6.456;2023-02-18T10:14:21;9.40;99.90
51765;DHT22;37835;53.256;6.456;2023-02-18T10:16:48;9.50;99.90
51765;DHT22;37835;53.256;6.456;2023-02-18T10:19:22;9.50;99.90
51765;DHT22;37835;53.256;6.456;2023-02-18T10:21:49;9.60;99.90
51765;DHT22;37835;53.256;6.456;2023-02-18T10:26:41;9.60;99.90
51765;DHT22;37835;53.256;6.456;2023-02-18T10:29:16;9.60;99.90
51765;DHT22;37835;53.256;6.456;2023-02-18T10:31:47;9.60;99.90
51765;DHT22;37835;53.256;6.456;2023-02-18T10:34:29;9.70;99.90
51765;DHT22;37835;53.256;6.456;2023-02-18T10:37:12;9.70;99.90
51765;DHT22;37835;53.256;6.456;2023-02-18T10:40:01;9.80;99.90
51765;DHT22;37835;53.256;6.456;2023-02-18T10:42:45;9.90;99.90
51765;DHT22;37835;53.256;6.456;2023-02-18T10:48:17;10.00;99.90
51765;DHT22;37835;53.256;6.456;2023-02-18T10:50:46;10.00;99.90
51765;DHT22;37835;53.256;6.456;2023-02-18T10:53:30;10.10;99.90
51765;DHT22;37835;53.256;6.456;2023-02-18T10:55:57;10.20;99.90
51765;DHT22;37835;53.256;6.456;2023-02-18T11:00:59;10.20;99.90
51765;DHT22;37835;53.256;6.456;2023-02-18T11:03:48;10.30;99.90
51765;DHT22;37835;53.256;6.456;2023-02-18T11:06:27;10.30;99.90
51765;DHT22;37835;53.256;6.456;2023-02-18T11:08:56;10.40;99.90
51765;DHT22;37835;53.256;6.456;2023-02-18T11:11:26;10.40;99.90
51765;DHT22;37835;53.256;6.456;2023-02-18T11:13:56;10.40;99.90
51765;DHT22;37835;53.256;6.456;2023-02-18T11:16:23;10.40;99.90
51765;DHT22;37835;53.256;6.456;2023-02-18T11:19:00;10.50;99.90
51765;DHT22;37835;53.256;6.456;2023-02-18T11:21:36;10.50;99.90
51765;DHT22;37835;53.256;6.456;2023-02-18T11:24:14;10.50;99.90
51765;DHT22;37835;53.256;6.456;2023-02-18T11:26:40;10.60;99.90
51765;DHT22;37835;53.256;6.456;2023-02-18T11:29:24;10.60;99.90
51765;DHT22;37835;53.256;6.456;2023-02-18T11:31:54;10.60;99.90
51765;DHT22;37835;53.256;6.456;2023-02-18T11:34:27;10.60;99.90
51765;DHT22;37835;53.256;6.456;2023-02-18T11:36:54;10.60;99.90
51765;DHT22;37835;53.256;6.456;2023-02-18T11:39:25;10.60;99.90
51765;DHT22;37835;53.256;6.456;2023-02-18T11:42:00;10.60;99.90
51765;DHT22;37835;53.256;6.456;2023-02-18T11:44:40;10.60;99.90
51765;DHT22;37835;53.256;6.456;2023-02-18T11:49:40;10.70;99.90
51765;DHT22;37835;53.256;6.456;2023-02-18T11:52:26;10.40;99.90
51765;DHT22;37835;53.256;6.456;2023-02-18T11:57:30;10.70;99.90
51765;DHT22;37835;53.256;6.456;2023-02-18T11:59:57;10.70;99.90
51765;DHT22;37835;53.256;6.456;2023-02-18T12:02:33;10.10;99.90
51765;DHT22;37835;53.256;6.456;2023-02-18T12:05:20;9.50;99.90
51765;DHT22;37835;53.256;6.456;2023-02-18T12:08:00;10.70;99.90
51765;DHT22;37835;53.256;6.456;2023-02-18T12:10:50;10.70;99.90
51765;DHT22;37835;53.256;6.456;2023-02-18T12:13:26;10.80;99.90
51765;DHT22;37835;53.256;6.456;2023-02-18T12:26:59;10.90;99.90
51765;DHT22;37835;53.256;6.456;2023-02-18T12:29:40;10.90;99.90
51765;DHT22;37835;53.256;6.456;2023-02-18T12:32:35;11.00;99.90
51765;DHT22;37835;53.256;6.456;2023-02-18T12:38:01;11.10;99.90
51765;DHT22;37835;53.256;6.456;2023-02-18T12:40:56;11.20;99.90
51765;DHT22;37835;53.256;6.456;2023-02-18T12:56:53;11.50;99.90
51765;DHT22;37835;53.256;6.456;2023-02-18T13:13:32;11.30;99.90
51765;DHT22;37835;53.256;6.456;2023-02-18T13:16:03;11.20;99.90
51765;DHT22;37835;53.256;6.456;2023-02-18T13:21:20;11.20;99.90
51765;DHT22;37835;53.256;6.456;2023-02-18T13:23:57;11.20;99.90
51765;DHT22;37835;53.256;6.456;2023-02-18T13:26:24;11.10;99.90
51765;DHT22;37835;53.256;6.456;2023-02-18T13:37:14;11.00;99.90
51765;DHT22;37835;53.256;6.456;2023-02-18T13:39:52;11.10;99.90
51765;DHT22;37835;53.256;6.456;2023-02-18T13:47:45;11.00;99.90
51765;DHT22;37835;53.256;6.456;2023-02-18T13:55:56;11.00;99.90
51765;DHT22;37835;53.256;6.456;2023-02-18T13:58:34;11.10;99.90
51765;DHT22;37835;53.256;6.456;2023-02-18T14:05:58;11.10;99.90
51765;DHT22;37835;53.256;6.456;2023-02-18T14:08:34;11.10;99.90
51765;DHT22;37835;53.256;6.456;2023-02-18T14:13:48;11.00;99.90
51765;DHT22;37835;53.256;6.456;2023-02-18T14:16:18;11.00;99.90
51765;DHT22;37835;53.256;6.456;2023-02-18T14:23:41;10.90;99.90
51765;DHT22;37835;53.256;6.456;2023-02-18T14:28:54;10.90;99.90
51765;DHT22;37835;53.256;6.456;2023-02-18T14:31:46;10.90;99.90
51765;DHT22;37835;53.256;6.456;2023-02-18T14:40:24;10.70;99.90
51765;DHT22;37835;53.256;6.456;2023-02-18T14:51:14;10.50;99.90
51765;DHT22;37835;53.256;6.456;2023-02-18T14:53:44;10.50;99.90
51765;DHT22;37835;53.256;6.456;2023-02-18T14:56:14;10.50;99.90
51765;DHT22;37835;53.256;6.456;2023-02-18T14:58:43;10.50;99.90
51765;DHT22;37835;53.256;6.456;2023-02-18T15:01:27;10.40;99.90
51765;DHT22;37835;53.256;6.456;2023-02-18T15:03:54;10.40;99.90
51765;DHT22;37835;53.256;6.456;2023-02-18T15:08:47;10.40;99.90
51765;DHT22;37835;53.256;6.456;2023-02-18T15:11:13;10.30;99.90
51765;DHT22;37835;53.256;6.456;2023-02-18T15:13:44;10.30;99.90
51765;DHT22;37835;53.256;6.456;2023-02-18T15:16:29;10.30;99.90
51765;DHT22;37835;53.256;6.456;2023-02-18T15:18:58;10.20;99.90
51765;DHT22;37835;53.256;6.456;2023-02-18T15:21:37;10.20;99.90
51765;DHT22;37835;53.256;6.456;2023-02-18T15:24:23;10.20;99.90
51765;DHT22;37835;53.256;6.456;2023-02-18T15:26:50;10.20;99.90
51765;DHT22;37835;53.256;6.456;2023-02-18T15:29:28;10.10;99.90
51765;DHT22;37835;53.256;6.456;2023-02-18T15:31:55;10.10;99.90
51765;DHT22;37835;53.256;6.456;2023-02-18T15:36:54;10.10;99.90
51765;DHT22;37835;53.256;6.456;2023-02-18T15:39:20;10.00;99.90
51765;DHT22;37835;53.256;6.456;2023-02-18T15:41:46;10.00;99.90
51765;DHT22;37835;53.256;6.456;2023-02-18T15:44:19;10.00;99.90
51765;DHT22;37835;53.256;6.456;2023-02-18T15:46:46;10.00;99.90
51765;DHT22;37835;53.256;6.456;2023-02-18T15:49:14;9.90;99.90
51765;DHT22;37835;53.256;6.456;2023-02-18T15:51:43;9.90;99.90
51765;DHT22;37835;53.256;6.456;2023-02-18T15:54:19;9.80;99.90
51765;DHT22;37835;53.256;6.456;2023-02-18T15:56:49;9.80;99.90
51765;DHT22;37835;53.256;6.456;2023-02-18T15:59:20;9.80;99.90
51765;DHT22;37835;53.256;6.456;2023-02-18T16:02:01;9.70;99.90
51765;DHT22;37835;53.256;6.456;2023-02-18T16:04:30;9.70;99.90
51765;DHT22;37835;53.256;6.456;2023-02-18T16:07:02;9.70;99.90
51765;DHT22;37835;53.256;6.456;2023-02-18T16:09:32;9.60;99.90
51765;DHT22;37835;53.256;6.456;2023-02-18T16:12:03;9.60;99.90
51765;DHT22;37835;53.256;6.456;2023-02-18T16:14:34;9.60;99.90
51765;DHT22;37835;53.256;6.456;2023-02-18T16:22:45;9.50;99.90
51765;DHT22;37835;53.256;6.456;2023-02-18T16:25:15;9.50;99.90
51765;DHT22;37835;53.256;6.456;2023-02-18T16:27:51;9.40;99.90
51765;DHT22;37835;53.256;6.456;2023-02-18T16:32:48;9.40;99.90
51765;DHT22;37835;53.256;6.456;2023-02-18T16:35:14;9.40;99.90
51765;DHT22;37835;53.256;6.456;2023-02-18T16:37:41;9.30;99.90
51765;DHT22;37835;53.256;6.456;2023-02-18T16:42:56;9.30;99.90
51765;DHT22;37835;53.256;6.456;2023-02-18T16:45:36;9.30;99.90
51765;DHT22;37835;53.256;6.456;2023-02-18T16:48:03;9.30;99.90
51765;DHT22;37835;53.256;6.456;2023-02-18T16:50:30;9.20;99.90
51765;DHT22;37835;53.256;6.456;2023-02-18T16:52:57;9.20;99.90
51765;DHT22;37835;53.256;6.456;2023-02-18T16:55:26;9.20;99.90
51765;DHT22;37835;53.256;6.456;2023-02-18T16:57:53;9.10;99.90
51765;DHT22;37835;53.256;6.456;2023-02-18T17:00:19;9.10;99.90
51765;DHT22;37835;53.256;6.456;2023-02-18T17:02:48;9.00;99.90
51765;DHT22;37835;53.256;6.456;2023-02-18T17:05:22;10.60;99.90
51765;DHT22;37835;53.256;6.456;2023-02-18T17:07:48;9.00;99.90
51765;DHT22;37835;53.256;6.456;2023-02-18T17:10:14;8.90;99.90
51765;DHT22;37835;53.256;6.456;2023-02-18T17:12:40;8.90;99.90
51765;DHT22;37835;53.256;6.456;2023-02-18T17:15:29;8.90;99.90
51765;DHT22;37835;53.256;6.456;2023-02-18T17:17:56;8.90;99.90
51765;DHT22;37835;53.256;6.456;2023-02-18T17:20:26;8.90;99.90
51765;DHT22;37835;53.256;6.456;2023-02-18T17:22:52;8.90;99.90
51765;DHT22;37835;53.256;6.456;2023-02-18T17:25:29;8.80;99.90
51765;DHT22;37835;53.256;6.456;2023-02-18T17:27:56;8.80;99.90
51765;DHT22;37835;53.256;6.456;2023-02-18T17:30:22;8.80;99.90
51765;DHT22;37835;53.256;6.456;2023-02-18T17:32:48;8.80;99.90
51765;DHT22;37835;53.256;6.456;2023-02-18T17:35:20;8.70;99.90
51765;DHT22;37835;53.256;6.456;2023-02-18T17:37:46;8.80;99.90
51765;DHT22;37835;53.256;6.456;2023-02-18T17:40:18;8.80;99.90
51765;DHT22;37835;53.256;6.456;2023-02-18T17:42:44;8.80;99.90
51765;DHT22;37835;53.256;6.456;2023-02-18T17:45:24;8.80;99.90
51765;DHT22;37835;53.256;6.456;2023-02-18T17:47:51;8.80;99.90
51765;DHT22;37835;53.256;6.456;2023-02-18T17:50:17;8.80;99.90
51765;DHT22;37835;53.256;6.456;2023-02-18T17:52:42;8.80;99.90
51765;DHT22;37835;53.256;6.456;2023-02-18T17:55:15;8.80;99.90
51765;DHT22;37835;53.256;6.456;2023-02-18T17:57:41;8.80;99.90
51765;DHT22;37835;53.256;6.456;2023-02-18T18:00:07;8.70;99.90
51765;DHT22;37835;53.256;6.456;2023-02-18T18:05:23;8.70;99.90
51765;DHT22;37835;53.256;6.456;2023-02-18T18:07:50;8.70;99.90
51765;DHT22;37835;53.256;6.456;2023-02-18T18:10:18;8.70;99.90
51765;DHT22;37835;53.256;6.456;2023-02-18T18:12:44;8.70;99.90
51765;DHT22;37835;53.256;6.456;2023-02-18T18:15:32;8.70;99.90
51765;DHT22;37835;53.256;6.456;2023-02-18T18:17:59;8.70;99.90
51765;DHT22;37835;53.256;6.456;2023-02-18T18:20:26;8.70;99.90
51765;DHT22;37835;53.256;6.456;2023-02-18T18:22:54;8.70;99.90
51765;DHT22;37835;53.256;6.456;2023-02-18T18:25:29;8.70;99.90
51765;DHT22;37835;53.256;6.456;2023-02-18T18:27:55;8.70;99.90
51765;DHT22;37835;53.256;6.456;2023-02-18T18:30:26;8.70;99.90
51765;DHT22;37835;53.256;6.456;2023-02-18T18:32:51;8.70;99.90